Time;durP1;ratioP1;P1;durP2;ratioP2;P2;SDS_P1;SDS_P2;PMS_P1;PMS_P2;Temp;Humidity;BMP_temperature;BMP_pressure;BME280_temperature;BME280_humidity;BME280_pressure;Samples;Min_cycle;Max_cycle;Signal;HPM_P1;HPM_P2
2021/08/24 20:41:15;;;;;;;7.60;3.43;;;14.20;99.90;;;;;;5128696;27;20465;-70
2021/08/24 20:43:42;;;;;;;8.07;3.87;;;14.20;99.90;;;;;;5107210;28;20204;-71
2021/08/24 20:46:11;;;;;;;7.30;4.10;;;14.10;99.90;;;;;;5109956;28;20200;-68
2021/08/24 20:48:38;;;;;;;6.63;4.23;;;14.20;99.90;;;;;;5102494;28;20205;-67
2021/08/24 20:51:06;;;;;;;6.53;4.20;;;14.20;99.90;;;;;;5109283;28;20667;-68
2021/08/24 20:53:33;;;;;;;8.03;4.70;;;14.20;99.90;;;;;;5107385;28;20566;-68
2021/08/24 20:56:00;;;;;;;6.97;4.20;;;14.20;99.90;;;;;;5107083;28;20207;-70
2021/08/24 20:58:30;;;;;;;5.90;4.13;;;14.20;99.90;;;;;;5106969;28;20200;-70
2021/08/24 21:00:58;;;;;;;7.87;4.47;;;14.30;99.90;;;;;;5108542;28;20228;-70
2021/08/24 21:03:25;;;;;;;7.87;4.53;;;14.30;99.90;;;;;;5108767;28;20208;-69
2021/08/24 21:05:58;;;;;;;7.73;4.10;;;14.30;99.90;;;;;;5108672;28;20208;-71
2021/08/24 21:08:25;;;;;;;7.80;4.90;;;14.40;99.90;;;;;;5100614;28;20216;-68
2021/08/24 21:10:54;;;;;;;7.80;4.60;;;14.30;99.90;;;;;;5108736;28;20214;-69
2021/08/24 21:13:23;;;;;;;7.50;4.50;;;14.40;99.90;;;;;;5108677;28;20700;-70
2021/08/24 21:15:51;;;;;;;7.03;4.50;;;14.40;99.90;;;;;;5108856;28;20636;-69
2021/08/24 21:18:18;;;;;;;8.30;5.10;;;14.40;99.90;;;;;;5108619;28;20211;-69
2021/08/24 21:20:45;;;;;;;11.63;4.83;;;14.50;99.90;;;;;;5108564;28;20226;-70
2021/08/24 21:23:13;;;;;;;8.47;4.17;;;14.40;99.90;;;;;;5097366;28;20456;-69
2021/08/24 21:25:40;;;;;;;7.50;4.27;;;14.40;99.90;;;;;;5107536;28;20762;-70
2021/08/24 21:28:07;;;;;;;8.40;4.73;;;14.50;99.90;;;;;;5108537;28;20219;-69
2021/08/24 21:30:39;;;;;;;8.53;4.17;;;14.50;99.90;;;;;;5108532;28;20196;-69
2021/08/24 21:33:08;;;;;;;6.40;4.43;;;14.40;99.90;;;;;;5107346;28;20235;-69
2021/08/24 21:35:48;;;;;;;8.77;5.13;;;14.50;99.90;;;;;;5107765;28;20400;-70
2021/08/24 21:38:19;;;;;;;6.87;4.83;;;14.50;99.90;;;;;;5106277;28;20678;-69
2021/08/24 21:40:50;;;;;;;8.53;4.60;;;14.50;99.90;;;;;;5107885;28;20227;-69
2021/08/24 21:43:18;;;;;;;7.07;4.47;;;14.40;99.90;;;;;;5107630;28;20196;-69
2021/08/24 21:45:44;;;;;;;7.10;4.23;;;14.50;99.90;;;;;;5107763;28;20212;-70
2021/08/24 21:48:13;;;;;;;7.10;4.40;;;14.50;99.90;;;;;;5107050;28;20246;-69
2021/08/24 21:50:41;;;;;;;6.43;4.57;;;14.50;99.90;;;;;;5104134;28;20209;-69
2021/08/24 21:53:08;;;;;;;10.97;5.27;;;14.40;99.90;;;;;;5093287;28;20211;-69
2021/08/24 21:55:37;;;;;;;5.87;4.17;;;14.40;99.90;;;;;;5093164;28;20208;-69
2021/08/24 21:58:05;;;;;;;8.23;4.90;;;14.40;99.90;;;;;;5093802;28;20287;-70
2021/08/24 22:00:34;;;;;;;7.27;4.50;;;14.40;99.90;;;;;;5093200;28;20228;-69
2021/08/24 22:03:01;;;;;;;8.80;4.60;;;14.40;99.90;;;;;;5094027;28;20213;-69
2021/08/24 22:05:31;;;;;;;10.63;4.60;;;14.30;99.90;;;;;;5093386;28;20211;-68
2021/08/24 22:07:58;;;;;;;9.83;4.83;;;14.30;99.90;;;;;;5094023;28;20208;-70
2021/08/24 22:10:25;;;;;;;9.63;4.93;;;14.20;99.90;;;;;;5093516;28;20197;-69
2021/08/24 22:12:52;;;;;;;8.53;5.60;;;14.20;99.90;;;;;;5093867;28;20204;-69
2021/08/24 22:15:26;;;;;;;8.20;4.43;;;14.20;99.90;;;;;;5092492;28;20220;-71
2021/08/24 22:17:55;;;;;;;6.97;4.70;;;14.10;99.90;;;;;;5093781;28;20224;-70
2021/08/24 22:20:25;;;;;;;10.03;5.07;;;14.10;99.90;;;;;;5093004;28;20247;-69
2021/08/24 22:22:54;;;;;;;7.03;4.60;;;14.10;99.90;;;;;;5081583;28;20655;-69
2021/08/24 22:25:22;;;;;;;7.27;4.67;;;14.00;99.90;;;;;;5093288;28;20204;-71
2021/08/24 22:27:51;;;;;;;9.97;5.70;;;14.00;99.90;;;;;;5094462;28;20743;-71
2021/08/24 22:30:19;;;;;;;8.30;4.87;;;13.90;99.90;;;;;;5093201;28;20201;-70
2021/08/24 22:33:02;;;;;;;8.13;5.20;;;13.90;99.90;;;;;;5093619;28;20212;-71
2021/08/24 22:36:07;;;;;;;8.47;5.20;;;13.90;99.90;;;;;;5092293;28;20215;-70
2021/08/24 22:38:37;;;;;;;8.73;4.80;;;13.80;99.90;;;;;;5088497;28;20204;-71
2021/08/24 22:41:06;;;;;;;8.13;5.00;;;13.80;99.90;;;;;;5089738;28;20309;-71
2021/08/24 22:43:34;;;;;;;8.77;5.13;;;13.70;99.90;;;;;;5091558;28;20292;-70
2021/08/24 22:46:02;;;;;;;9.53;5.13;;;13.70;99.90;;;;;;5092890;28;20285;-70
2021/08/24 22:48:29;;;;;;;8.33;4.80;;;13.70;99.90;;;;;;5092365;28;20270;-70
2021/08/24 22:50:56;;;;;;;7.17;4.23;;;13.60;99.90;;;;;;5092733;28;20201;-70
2021/08/24 22:53:23;;;;;;;9.80;5.37;;;13.60;99.90;;;;;;5090413;28;20692;-70
2021/08/24 22:55:52;;;;;;;9.60;5.37;;;13.60;99.90;;;;;;5093441;28;20643;-70
2021/08/24 22:58:19;;;;;;;7.90;4.60;;;13.60;99.90;;;;;;5093208;28;20674;-70
2021/08/24 23:00:47;;;;;;;9.30;4.63;;;13.60;99.90;;;;;;5092581;28;20221;-70
2021/08/24 23:03:14;;;;;;;12.33;5.17;;;13.50;99.90;;;;;;5092034;28;20209;-70
2021/08/24 23:05:41;;;;;;;10.50;4.87;;;13.50;99.90;;;;;;5093919;28;20204;-70
2021/08/24 23:08:08;;;;;;;9.13;4.97;;;13.50;99.90;;;;;;5093667;28;20626;-70
2021/08/24 23:10:38;;;;;;;7.80;4.93;;;13.40;99.90;;;;;;5092852;28;20304;-71
2021/08/24 23:13:07;;;;;;;8.53;4.87;;;13.40;99.90;;;;;;5093216;28;20288;-71
2021/08/24 23:15:35;;;;;;;8.50;5.10;;;13.40;99.90;;;;;;5093052;28;20295;-70
2021/08/24 23:18:02;;;;;;;7.47;5.03;;;13.40;99.90;;;;;;5039074;28;20281;-69
2021/08/24 23:20:29;;;;;;;9.27;4.43;;;13.40;99.90;;;;;;5032693;28;20321;-71
2021/08/24 23:22:56;;;;;;;8.67;4.57;;;13.30;99.90;;;;;;5033839;28;20235;-70
2021/08/24 23:25:23;;;;;;;7.37;5.00;;;13.30;99.90;;;;;;5033042;28;20266;-70
2021/08/24 23:27:50;;;;;;;7.77;5.20;;;13.30;99.90;;;;;;5032593;28;20734;-70
2021/08/24 23:30:19;;;;;;;10.03;5.20;;;13.30;99.90;;;;;;5033079;28;20286;-69
2021/08/24 23:32:46;;;;;;;7.13;5.00;;;13.20;99.90;;;;;;5033224;28;20275;-70
2021/08/24 23:35:12;;;;;;;9.37;4.63;;;13.20;99.90;;;;;;5030034;28;20254;-69
2021/08/24 23:37:39;;;;;;;10.57;4.70;;;13.20;99.90;;;;;;5033066;28;20258;-70
2021/08/24 23:40:08;;;;;;;9.43;5.00;;;13.20;99.90;;;;;;5032835;28;20325;-69
2021/08/24 23:42:34;;;;;;;7.93;4.87;;;13.10;99.90;;;;;;5032405;28;20700;-69
2021/08/24 23:45:01;;;;;;;8.47;4.30;;;13.10;99.90;;;;;;5032298;28;20310;-69
2021/08/24 23:47:30;;;;;;;9.07;4.70;;;13.10;99.90;;;;;;5032872;28;20298;-69
2021/08/24 23:49:57;;;;;;;8.97;4.73;;;13.10;99.90;;;;;;5031903;28;20246;-69
2021/08/24 23:52:24;;;;;;;7.70;4.90;;;13.10;99.90;;;;;;5032374;28;20738;-69
2021/08/24 23:54:51;;;;;;;8.53;4.67;;;13.10;99.90;;;;;;5031665;28;20207;-69
2021/08/24 23:57:21;;;;;;;11.27;4.40;;;13.00;99.90;;;;;;5014075;28;20727;-68
2021/08/24 23:59:48;;;;;;;7.77;4.33;;;13.00;99.90;;;;;;5026706;28;20297;-69
